Time;durP1;ratioP1;P1;durP2;ratioP2;P2;SDS_P1;SDS_P2;PMS_P1;PMS_P2;Temp;Humidity;BMP_temperature;BMP_pressure;BME280_temperature;BME280_humidity;BME280_pressure;Samples;Min_cycle;Max_cycle;Signal;HPM_P1;HPM_P2
2022/11/23 00:00:24;;;;;;;9.70;1.58;;;9.40;99.90;;;;;;4156249;28;20564;-67
2022/11/23 00:02:25;;;;;;;4.80;1.27;;;9.40;99.90;;;;;;4156892;28;20398;-67
2022/11/23 00:04:26;;;;;;;7.82;1.67;;;9.40;99.90;;;;;;4158555;28;20041;-68
2022/11/23 00:06:26;;;;;;;5.65;1.70;;;9.40;99.90;;;;;;4158078;28;20033;-67
2022/11/23 00:08:27;;;;;;;7.10;1.50;;;9.40;99.90;;;;;;4145515;28;20077;-67
2022/11/23 00:10:27;;;;;;;4.60;1.05;;;9.40;99.90;;;;;;4153427;28;20029;-68
2022/11/23 00:12:28;;;;;;;8.15;2.13;;;9.40;99.90;;;;;;4154404;28;20033;-68
2022/11/23 00:14:28;;;;;;;6.35;1.50;;;9.40;99.90;;;;;;4153809;28;20100;-67
2022/11/23 00:16:30;;;;;;;10.45;2.13;;;9.40;99.90;;;;;;4154401;28;20038;-69
2022/11/23 00:18:30;;;;;;;15.23;2.03;;;9.40;99.90;;;;;;4151491;28;20475;-68
2022/11/23 00:20:31;;;;;;;6.07;1.60;;;9.40;99.90;;;;;;4157660;28;20113;-67
2022/11/23 00:22:33;;;;;;;4.60;1.52;;;9.40;99.90;;;;;;4157078;28;20489;-67
2022/11/23 00:24:33;;;;;;;5.38;1.60;;;9.40;99.90;;;;;;4157403;28;20052;-67
2022/11/23 00:26:34;;;;;;;7.13;1.27;;;9.50;99.90;;;;;;4142010;28;20029;-67
2022/11/23 00:28:37;;;;;;;7.32;1.85;;;9.50;99.90;;;;;;4158343;28;20045;-67
2022/11/23 00:30:38;;;;;;;4.20;1.73;;;9.40;99.90;;;;;;4154643;28;20111;-68
2022/11/23 00:32:38;;;;;;;5.07;1.70;;;9.50;99.90;;;;;;4158006;28;20029;-71
2022/11/23 00:34:39;;;;;;;5.15;1.58;;;9.50;99.90;;;;;;4156336;28;20040;-67
2022/11/23 00:36:40;;;;;;;5.75;1.67;;;9.40;99.90;;;;;;4158264;28;20041;-67
2022/11/23 00:38:42;;;;;;;7.30;1.63;;;9.40;99.90;;;;;;4144495;28;20033;-68
2022/11/23 00:40:42;;;;;;;11.80;2.20;;;9.50;99.90;;;;;;4150720;28;20042;-67
2022/11/23 00:42:43;;;;;;;5.50;1.58;;;9.40;99.90;;;;;;4163529;28;20029;-68
2022/11/23 00:44:43;;;;;;;7.80;2.05;;;9.40;99.90;;;;;;4152934;28;20030;-67
2022/11/23 00:46:44;;;;;;;6.68;1.90;;;9.40;99.90;;;;;;4159648;28;20446;-66
2022/11/23 00:48:48;;;;;;;7.25;1.98;;;9.40;99.90;;;;;;4161072;28;20490;-67
2022/11/23 00:50:48;;;;;;;4.93;1.50;;;9.50;99.90;;;;;;4141402;28;20392;-68
2022/11/23 00:52:49;;;;;;;8.88;1.88;;;9.40;99.90;;;;;;4160551;28;20042;-67
2022/11/23 00:54:49;;;;;;;6.80;1.77;;;9.50;99.90;;;;;;4160452;28;20038;-67
2022/11/23 00:56:50;;;;;;;8.15;1.63;;;9.50;99.90;;;;;;4160568;28;20030;-68
2022/11/23 00:58:52;;;;;;;4.53;1.23;;;9.50;99.90;;;;;;4159301;28;20040;-67
2022/11/23 01:01:01;;;;;;;4.63;1.48;;;9.50;99.90;;;;;;4134227;28;20065;-67
2022/11/23 01:03:02;;;;;;;4.75;1.45;;;9.50;99.90;;;;;;4158449;28;20079;-67
2022/11/23 01:05:03;;;;;;;5.25;1.60;;;9.50;99.90;;;;;;4158999;28;20566;-67
2022/11/23 01:07:04;;;;;;;5.50;1.60;;;9.50;99.90;;;;;;4152094;28;20037;-67
2022/11/23 01:09:13;;;;;;;7.25;1.80;;;9.50;99.90;;;;;;4135684;28;20035;-67
2022/11/23 01:11:13;;;;;;;3.55;1.33;;;9.50;99.90;;;;;;4158191;28;20033;-67
2022/11/23 01:13:14;;;;;;;6.82;1.80;;;9.50;99.90;;;;;;4163443;28;20407;-67
2022/11/23 01:15:15;;;;;;;7.40;1.73;;;9.50;99.90;;;;;;4155512;28;20033;-67
2022/11/23 01:17:15;;;;;;;7.20;1.52;;;9.50;99.90;;;;;;4157508;28;20152;-67
2022/11/23 01:19:18;;;;;;;6.65;1.50;;;9.50;99.90;;;;;;4162170;28;20389;-67
2022/11/23 01:21:18;;;;;;;;;;;9.50;99.90;;;;;;4140514;28;20044;-67
2022/11/23 01:23:19;;;;;;;9.57;2.17;;;9.50;99.90;;;;;;4156821;28;19909;-67
2022/11/23 01:25:19;;;;;;;8.63;2.05;;;9.50;99.90;;;;;;4143625;28;20030;-67
2022/11/23 01:27:20;;;;;;;5.78;1.77;;;9.50;99.90;;;;;;4159141;28;20510;-67
2022/11/23 01:29:22;;;;;;;10.00;1.58;;;9.50;99.90;;;;;;4155274;28;20490;-68
2022/11/23 01:31:24;;;;;;;4.85;1.60;;;9.50;99.90;;;;;;4168134;28;20143;-67
2022/11/23 01:33:25;;;;;;;7.20;1.85;;;9.50;99.90;;;;;;4139997;28;20122;-67
2022/11/23 01:35:26;;;;;;;7.18;1.50;;;9.50;99.90;;;;;;4153142;28;20509;-69
2022/11/23 01:37:27;;;;;;;6.95;1.45;;;9.50;99.90;;;;;;4156041;28;20095;-68
2022/11/23 01:39:27;;;;;;;8.52;2.28;;;9.50;99.90;;;;;;4155785;28;20045;-67
2022/11/23 01:41:31;;;;;;;7.10;1.75;;;9.50;99.90;;;;;;4144101;28;20038;-69
2022/11/23 01:43:32;;;;;;;5.78;1.67;;;9.50;99.90;;;;;;4157443;28;20033;-67
2022/11/23 01:45:41;;;;;;;10.40;2.30;;;9.50;99.90;;;;;;4155141;28;20040;-68
2022/11/23 01:47:41;;;;;;;6.75;1.67;;;9.50;99.90;;;;;;4158159;28;20033;-67
2022/11/23 01:49:45;;;;;;;4.78;1.30;;;9.50;99.90;;;;;;4156865;28;20063;-67
2022/11/23 01:51:49;;;;;;;8.40;1.75;;;9.60;99.90;;;;;;4155678;28;20053;-67
2022/11/23 01:53:56;;;;;;;8.13;1.73;;;9.50;99.90;;;;;;4141821;28;20030;-67
2022/11/23 01:55:59;;;;;;;7.65;2.15;;;9.60;99.90;;;;;;4156849;28;20137;-67
2022/11/23 01:58:02;;;;;;;8.38;1.85;;;9.50;99.90;;;;;;4157469;28;20112;-68
2022/11/23 02:00:03;;;;;;;;;;;9.50;99.90;;;;;;4158504;28;20041;-67
2022/11/23 02:02:04;;;;;;;7.50;1.55;;;9.60;99.90;;;;;;4157989;28;19910;-67
2022/11/23 02:04:07;;;;;;;5.55;1.70;;;9.60;99.90;;;;;;4158047;28;20112;-68
2022/11/23 02:06:13;;;;;;;4.90;1.80;;;9.60;99.90;;;;;;4141555;28;20112;-69
2022/11/23 02:08:16;;;;;;;8.60;1.92;;;9.60;99.90;;;;;;4158687;28;20490;-67
2022/11/23 02:10:17;;;;;;;8.07;1.60;;;9.60;99.90;;;;;;4157993;28;20040;-67
2022/11/23 02:12:18;;;;;;;7.43;1.77;;;9.60;99.90;;;;;;4159167;28;20513;-68
2022/11/23 02:14:18;;;;;;;7.00;2.05;;;9.60;99.90;;;;;;4157661;28;20033;-68
2022/11/23 02:16:19;;;;;;;7.75;1.85;;;9.60;99.90;;;;;;4156726;28;20120;-68
2022/11/23 02:18:27;;;;;;;6.75;1.70;;;9.60;99.90;;;;;;4145303;28;20049;-67
2022/11/23 02:20:28;;;;;;;4.97;1.63;;;9.70;99.90;;;;;;4156114;28;20208;-67
2022/11/23 02:22:38;;;;;;;4.97;1.52;;;9.60;99.90;;;;;;4158140;28;20479;-67
2022/11/23 02:24:44;;;;;;;8.48;1.70;;;9.60;99.90;;;;;;4156975;28;20041;-70
2022/11/23 02:26:45;;;;;;;7.88;1.52;;;9.70;99.90;;;;;;4158013;28;20037;-67
2022/11/23 02:28:53;;;;;;;4.25;1.40;;;9.70;99.90;;;;;;4158962;28;20034;-67
2022/11/23 02:30:54;;;;;;;7.70;1.90;;;9.70;99.90;;;;;;4159208;28;20478;-67
2022/11/23 02:32:55;;;;;;;4.68;1.35;;;9.70;99.90;;;;;;4160538;28;20504;-67
2022/11/23 02:34:56;;;;;;;7.68;1.50;;;9.70;99.90;;;;;;4158911;28;20120;-66
2022/11/23 02:36:57;;;;;;;7.25;2.38;;;9.70;99.90;;;;;;4161743;28;20048;-67
2022/11/23 02:38:59;;;;;;;7.72;1.83;;;9.70;99.90;;;;;;4162407;28;20033;-67
2022/11/23 02:41:00;;;;;;;5.95;1.65;;;9.70;99.90;;;;;;4159520;28;20030;-68
2022/11/23 02:43:01;;;;;;;7.50;1.88;;;9.70;99.90;;;;;;4160104;28;20029;-69
2022/11/23 02:45:14;;;;;;;8.73;1.80;;;9.70;99.90;;;;;;4161338;28;20564;-68
2022/11/23 02:47:15;;;;;;;7.57;1.52;;;9.70;99.90;;;;;;4160323;28;20056;-67
2022/11/23 02:49:15;;;;;;;5.82;1.42;;;9.70;99.90;;;;;;4146364;28;20038;-67
2022/11/23 02:51:16;;;;;;;5.07;1.65;;;9.70;99.90;;;;;;4161033;28;20105;-67
2022/11/23 02:53:17;;;;;;;14.18;2.33;;;9.80;99.90;;;;;;4160678;28;20030;-67
2022/11/23 02:55:17;;;;;;;4.70;1.65;;;9.70;99.90;;;;;;4160242;28;20111;-67
2022/11/23 02:57:18;;;;;;;9.77;2.17;;;9.70;99.90;;;;;;4160655;28;20509;-68
2022/11/23 02:59:19;;;;;;;7.25;1.48;;;9.80;99.90;;;;;;4161167;28;20372;-68
2022/11/23 03:01:20;;;;;;;12.45;1.73;;;9.80;99.90;;;;;;4160414;28;20397;-67
2022/11/23 03:03:20;;;;;;;7.05;1.92;;;9.80;99.90;;;;;;4159113;28;20125;-67
2022/11/23 03:05:21;;;;;;;6.05;1.60;;;9.80;99.90;;;;;;4158613;28;20037;-67
2022/11/23 03:07:21;;;;;;;8.27;1.77;;;9.80;99.90;;;;;;4161401;28;20107;-67
2022/11/23 03:09:24;;;;;;;6.90;1.63;;;9.70;99.90;;;;;;4161302;28;20402;-68
2022/11/23 03:11:25;;;;;;;6.65;1.70;;;9.80;99.90;;;;;;4160770;28;20045;-67
2022/11/23 03:13:26;;;;;;;8.93;2.33;;;9.80;99.90;;;;;;4157900;28;20037;-67
2022/11/23 03:15:27;;;;;;;5.30;1.75;;;9.80;99.90;;;;;;4158716;28;20499;-68
2022/11/23 03:17:28;;;;;;;6.78;2.13;;;9.80;99.90;;;;;;4162541;28;20034;-68
2022/11/23 03:19:28;;;;;;;7.30;2.15;;;9.80;99.90;;;;;;4160251;28;20044;-68
2022/11/23 03:21:29;;;;;;;5.03;1.75;;;9.80;99.90;;;;;;4146246;28;20053;-68
2022/11/23 03:23:29;;;;;;;7.93;1.67;;;9.80;99.90;;;;;;4160217;28;20030;-68
2022/11/23 03:25:30;;;;;;;9.57;1.98;;;9.80;99.90;;;;;;4144163;28;20113;-68
2022/11/23 03:27:32;;;;;;;8.05;2.10;;;9.70;99.90;;;;;;4160003;28;20057;-68
2022/11/23 03:29:33;;;;;;;15.80;2.33;;;9.80;99.90;;;;;;4159392;28;20034;-68
2022/11/23 03:31:34;;;;;;;6.43;1.80;;;9.80;99.90;;;;;;4160380;28;20025;-68
2022/11/23 03:33:34;;;;;;;6.63;1.73;;;9.70;99.90;;;;;;4160779;28;20025;-68
2022/11/23 03:35:35;;;;;;;8.93;2.22;;;9.70;99.90;;;;;;4160622;28;20041;-68
2022/11/23 03:37:35;;;;;;;7.65;1.90;;;9.70;99.90;;;;;;4163778;28;20091;-68
2022/11/23 03:39:36;;;;;;;9.60;2.35;;;9.70;99.90;;;;;;4163442;28;20033;-68
2022/11/23 03:41:36;;;;;;;7.88;2.22;;;9.70;99.90;;;;;;4159473;28;20026;-67
2022/11/23 03:43:37;;;;;;;6.70;2.33;;;9.80;99.90;;;;;;4151961;28;20096;-67
2022/11/23 03:45:38;;;;;;;7.65;1.60;;;9.80;99.90;;;;;;4157624;28;20048;-67
2022/11/23 03:47:38;;;;;;;9.23;2.08;;;9.70;99.90;;;;;;4136178;28;20027;-67
2022/11/23 03:49:39;;;;;;;6.35;2.10;;;9.70;99.90;;;;;;4151487;28;20493;-70
2022/11/23 03:51:39;;;;;;;8.13;1.88;;;9.70;99.90;;;;;;4153492;28;20041;-68
2022/11/23 03:53:40;;;;;;;12.13;2.45;;;9.70;99.90;;;;;;4152501;28;20108;-67
2022/11/23 03:55:40;;;;;;;7.05;2.10;;;9.70;99.90;;;;;;4144293;28;20438;-67
2022/11/23 03:57:41;;;;;;;8.73;1.95;;;9.70;99.90;;;;;;4154840;28;20512;-67
2022/11/23 03:59:42;;;;;;;7.47;2.08;;;9.70;99.90;;;;;;4152043;28;20383;-68
2022/11/23 04:01:42;;;;;;;11.43;1.60;;;9.70;99.90;;;;;;4151541;28;20075;-68
2022/11/23 04:03:43;;;;;;;7.97;2.05;;;9.70;99.90;;;;;;4155254;28;20022;-67
2022/11/23 04:05:43;;;;;;;10.73;2.05;;;9.70;99.90;;;;;;4172223;28;20108;-68
2022/11/23 04:07:46;;;;;;;6.70;2.00;;;9.70;99.90;;;;;;4156263;28;20026;-69
2022/11/23 04:09:47;;;;;;;7.40;1.92;;;9.70;99.90;;;;;;4157692;28;20113;-69
2022/11/23 04:11:47;;;;;;;8.63;2.38;;;9.70;99.90;;;;;;4148822;28;20041;-68
2022/11/23 04:13:48;;;;;;;5.75;1.70;;;9.70;99.90;;;;;;4147993;28;20037;-67
2022/11/23 04:15:48;;;;;;;11.88;2.88;;;9.70;99.90;;;;;;4162227;28;20022;-67
2022/11/23 04:17:49;;;;;;;8.93;2.08;;;9.70;99.90;;;;;;4162204;28;20486;-67
2022/11/23 04:19:49;;;;;;;8.68;2.33;;;9.70;99.90;;;;;;4150138;28;20034;-69
2022/11/23 04:21:50;;;;;;;10.88;2.13;;;9.60;99.90;;;;;;4161558;28;20495;-67
2022/11/23 04:23:50;;;;;;;10.70;2.00;;;9.70;99.90;;;;;;4158195;28;20561;-67
2022/11/23 04:25:51;;;;;;;7.43;2.08;;;9.70;99.90;;;;;;4172989;28;20325;-66
2022/11/23 04:27:52;;;;;;;10.23;2.33;;;9.70;99.90;;;;;;4151873;28;20026;-67
2022/11/23 04:29:52;;;;;;;13.40;2.22;;;9.70;99.90;;;;;;4139278;28;20030;-67
2022/11/23 04:31:53;;;;;;;13.95;2.30;;;9.70;99.90;;;;;;4162136;28;20022;-67
2022/11/23 04:33:55;;;;;;;9.30;2.25;;;9.70;99.90;;;;;;4153183;28;20120;-66
2022/11/23 04:35:56;;;;;;;12.18;2.45;;;9.70;99.90;;;;;;4164066;28;20056;-68
2022/11/23 04:37:57;;;;;;;12.85;2.13;;;9.70;99.90;;;;;;4153788;28;20045;-67
2022/11/23 04:39:57;;;;;;;8.27;2.10;;;9.70;99.90;;;;;;4145288;28;20037;-66
2022/11/23 04:41:58;;;;;;;10.45;2.45;;;9.70;99.90;;;;;;4158988;28;20048;-66
2022/11/23 04:43:58;;;;;;;6.88;2.15;;;9.70;99.90;;;;;;4149149;28;20034;-67
2022/11/23 04:45:59;;;;;;;10.52;2.38;;;9.70;99.90;;;;;;4148352;28;20399;-67
2022/11/23 04:47:59;;;;;;;8.90;2.08;;;9.80;99.90;;;;;;4148100;28;20105;-67
2022/11/23 04:50:00;;;;;;;6.97;1.80;;;9.80;99.90;;;;;;4154366;28;20041;-67
2022/11/23 04:52:01;;;;;;;8.77;1.98;;;9.80;99.90;;;;;;4149854;28;20030;-67
2022/11/23 04:54:01;;;;;;;8.95;2.35;;;9.80;99.90;;;;;;4152392;28;20041;-66
2022/11/23 04:56:02;;;;;;;8.05;1.90;;;9.80;99.90;;;;;;4134132;28;20026;-68
2022/11/23 04:58:03;;;;;;;7.68;1.77;;;9.80;99.90;;;;;;4159595;28;20029;-67
2022/11/23 05:00:04;;;;;;;9.98;2.00;;;9.80;99.90;;;;;;4153757;28;20402;-67
2022/11/23 05:02:04;;;;;;;9.02;1.95;;;9.70;99.90;;;;;;4142253;28;20100;-66
2022/11/23 05:04:05;;;;;;;9.18;2.05;;;9.70;99.90;;;;;;4157174;28;20049;-67
2022/11/23 05:06:06;;;;;;;9.90;2.60;;;9.80;99.90;;;;;;4143442;28;20053;-67
2022/11/23 05:08:07;;;;;;;7.60;1.80;;;9.70;99.90;;;;;;4160704;28;20033;-68
2022/11/23 05:10:08;;;;;;;11.07;2.00;;;9.70;99.90;;;;;;4138399;28;21078;-67
2022/11/23 05:12:09;;;;;;;12.07;2.95;;;9.70;99.90;;;;;;4156126;28;21391;-68
2022/11/23 05:14:09;;;;;;;9.27;2.10;;;9.70;99.90;;;;;;4149818;28;20044;-68
2022/11/23 05:16:10;;;;;;;15.32;3.03;;;9.70;99.90;;;;;;4152932;28;20043;-70
2022/11/23 05:18:11;;;;;;;8.55;1.90;;;9.70;99.90;;;;;;4155781;28;20117;-68
2022/11/23 05:20:11;;;;;;;14.43;2.88;;;9.70;99.90;;;;;;4166531;28;20120;-67
2022/11/23 05:22:12;;;;;;;10.05;2.13;;;9.70;99.90;;;;;;4167486;28;20030;-68
2022/11/23 05:24:13;;;;;;;7.70;1.95;;;9.70;99.90;;;;;;4157059;28;20033;-68
2022/11/23 05:26:13;;;;;;;9.10;2.70;;;9.70;99.90;;;;;;4158362;28;20375;-67
2022/11/23 05:28:17;;;;;;;9.50;2.20;;;9.70;99.90;;;;;;4159007;28;20044;-68
2022/11/23 05:30:18;;;;;;;9.65;2.13;;;9.80;99.90;;;;;;4158589;28;20036;-67
2022/11/23 05:32:19;;;;;;;7.00;2.00;;;9.80;99.90;;;;;;4136071;28;20037;-68
2022/11/23 05:34:19;;;;;;;12.88;2.75;;;9.80;99.90;;;;;;4157328;28;20486;-68
2022/11/23 05:36:20;;;;;;;7.43;1.95;;;9.80;99.90;;;;;;4157303;28;20076;-67
2022/11/23 05:38:20;;;;;;;12.25;3.00;;;9.80;99.90;;;;;;4150508;28;20108;-71
2022/11/23 05:40:21;;;;;;;10.10;2.42;;;9.80;99.90;;;;;;4152591;28;20129;-68
2022/11/23 05:42:22;;;;;;;9.35;2.35;;;9.80;99.90;;;;;;4154386;28;20049;-68
2022/11/23 05:44:22;;;;;;;9.35;2.47;;;9.70;99.90;;;;;;4152974;28;20498;-67
2022/11/23 05:46:23;;;;;;;7.15;2.40;;;9.70;99.90;;;;;;4159299;28;20049;-67
2022/11/23 05:48:23;;;;;;;8.27;2.05;;;9.70;99.90;;;;;;4158827;28;20120;-67
2022/11/23 05:50:26;;;;;;;10.13;3.40;;;9.70;99.90;;;;;;4158722;28;20386;-67
2022/11/23 05:52:27;;;;;;;15.15;2.90;;;9.70;99.90;;;;;;4149562;28;20050;-67
2022/11/23 05:54:27;;;;;;;13.52;2.75;;;9.70;99.90;;;;;;4143478;28;20041;-69
2022/11/23 05:56:28;;;;;;;8.07;2.13;;;9.70;99.90;;;;;;4158484;28;20060;-67
2022/11/23 05:58:28;;;;;;;8.38;2.45;;;9.70;99.90;;;;;;4156193;28;20033;-67
2022/11/23 06:00:29;;;;;;;7.68;2.08;;;9.70;99.90;;;;;;4162358;28;20042;-67
2022/11/23 06:02:29;;;;;;;8.55;1.90;;;9.70;99.90;;;;;;4158504;28;20487;-68
2022/11/23 06:04:30;;;;;;;7.47;2.22;;;9.70;99.90;;;;;;4147667;28;20454;-67
2022/11/23 06:06:31;;;;;;;9.77;2.50;;;9.70;99.90;;;;;;4151550;28;20057;-67
2022/11/23 06:08:31;;;;;;;5.43;1.60;;;9.70;99.90;;;;;;4153635;28;20042;-67
2022/11/23 06:10:32;;;;;;;11.65;2.30;;;9.70;99.90;;;;;;4157154;28;20044;-66
2022/11/23 06:12:32;;;;;;;12.43;2.60;;;9.70;99.90;;;;;;4161224;28;20040;-68
2022/11/23 06:14:33;;;;;;;8.65;2.05;;;9.70;99.90;;;;;;4162179;28;20038;-67
2022/11/23 06:16:33;;;;;;;8.13;2.20;;;9.70;99.90;;;;;;4158001;28;20088;-67
2022/11/23 06:18:34;;;;;;;6.43;1.98;;;9.70;99.90;;;;;;4142906;28;20041;-67
2022/11/23 06:20:35;;;;;;;6.40;1.65;;;9.70;99.90;;;;;;4152939;28;20029;-68
2022/11/23 06:22:35;;;;;;;8.63;1.95;;;9.70;99.90;;;;;;4141038;28;20038;-70
2022/11/23 06:24:36;;;;;;;10.55;2.53;;;9.70;99.90;;;;;;4163258;28;20049;-68
2022/11/23 06:26:36;;;;;;;6.55;1.80;;;9.70;99.90;;;;;;4157700;28;20483;-68
2022/11/23 06:28:37;;;;;;;11.20;2.53;;;9.80;99.90;;;;;;4155044;28;20491;-67
2022/11/23 06:30:38;;;;;;;7.57;2.20;;;9.80;99.90;;;;;;4149430;28;20683;-67
2022/11/23 06:32:38;;;;;;;7.78;2.15;;;9.70;99.90;;;;;;4152883;28;20171;-67
2022/11/23 06:34:39;;;;;;;10.52;2.70;;;9.70;99.90;;;;;;4155409;28;20029;-67
2022/11/23 06:36:40;;;;;;;9.93;2.28;;;9.70;99.90;;;;;;4146071;28;20050;-68
2022/11/23 06:38:40;;;;;;;9.90;2.15;;;9.70;99.90;;;;;;4155368;28;20038;-67
2022/11/23 06:40:42;;;;;;;10.67;2.50;;;9.70;99.90;;;;;;4138898;28;20060;-68
2022/11/23 06:42:42;;;;;;;12.20;2.35;;;9.70;99.90;;;;;;4152934;28;20057;-65
2022/11/23 06:44:43;;;;;;;10.07;2.65;;;9.70;99.90;;;;;;4149587;28;20419;-66
2022/11/23 06:46:44;;;;;;;10.75;2.42;;;9.80;99.90;;;;;;4148176;28;20029;-67
2022/11/23 06:48:45;;;;;;;9.45;2.25;;;9.70;99.90;;;;;;4152852;28;20451;-67
2022/11/23 06:50:46;;;;;;;9.68;2.50;;;9.70;99.90;;;;;;4158723;28;20079;-68
2022/11/23 06:52:47;;;;;;;10.43;2.38;;;9.70;99.90;;;;;;4153063;28;20042;-65
2022/11/23 06:54:47;;;;;;;6.50;2.30;;;9.80;99.90;;;;;;4150016;28;20033;-66
2022/11/23 06:56:48;;;;;;;10.80;2.67;;;9.70;99.90;;;;;;4156017;28;20479;-66
2022/11/23 06:58:48;;;;;;;9.30;2.58;;;9.70;99.90;;;;;;4157186;28;20121;-66
2022/11/23 07:00:49;;;;;;;15.20;3.15;;;9.70;99.90;;;;;;4143388;28;20034;-67
2022/11/23 07:02:54;;;;;;;9.50;2.35;;;9.70;99.90;;;;;;4154495;28;20034;-66
2022/11/23 07:04:54;;;;;;;10.77;2.70;;;9.70;99.90;;;;;;4160414;28;20045;-66
2022/11/23 07:06:55;;;;;;;10.63;2.67;;;9.70;99.90;;;;;;4149503;28;20096;-66
2022/11/23 07:08:55;;;;;;;13.57;2.95;;;9.70;99.90;;;;;;4143639;28;20061;-66
2022/11/23 07:11:04;;;;;;;8.10;2.22;;;9.80;99.90;;;;;;4157016;28;20091;-66
2022/11/23 07:13:06;;;;;;;12.20;2.50;;;9.80;99.90;;;;;;4152338;28;20041;-66
2022/11/23 07:15:07;;;;;;;14.77;3.27;;;9.80;99.90;;;;;;4152960;28;20040;-68
2022/11/23 07:17:08;;;;;;;10.68;2.53;;;9.70;99.90;;;;;;4143639;28;20112;-67
2022/11/23 07:19:08;;;;;;;11.32;2.60;;;9.70;99.90;;;;;;4150249;28;20041;-66
2022/11/23 07:21:09;;;;;;;10.02;2.22;;;9.70;99.90;;;;;;4151265;28;20442;-66
2022/11/23 07:23:10;;;;;;;7.10;1.77;;;9.70;99.90;;;;;;4157665;28;20042;-66
2022/11/23 07:25:15;;;;;;;7.03;2.10;;;9.70;99.90;;;;;;4150215;28;20037;-66
2022/11/23 07:27:16;;;;;;;10.25;1.77;;;9.80;99.90;;;;;;4138223;28;20052;-66
2022/11/23 07:29:17;;;;;;;7.50;2.17;;;9.70;99.90;;;;;;4150933;28;20052;-67
2022/11/23 07:31:17;;;;;;;7.22;2.13;;;9.70;99.90;;;;;;4147310;28;20034;-66
2022/11/23 07:33:18;;;;;;;7.65;2.05;;;9.70;99.90;;;;;;4160294;28;20037;-65
2022/11/23 07:35:19;;;;;;;10.30;2.58;;;9.70;99.90;;;;;;4152704;28;20179;-66
2022/11/23 07:37:20;;;;;;;8.93;2.30;;;9.70;99.90;;;;;;4145513;28;20408;-67
2022/11/23 07:39:20;;;;;;;8.73;2.53;;;9.70;99.90;;;;;;4137195;28;20511;-67
2022/11/23 07:41:21;;;;;;;9.95;2.65;;;9.70;99.90;;;;;;4154085;28;20510;-66
2022/11/23 07:43:22;;;;;;;8.70;2.17;;;9.70;99.90;;;;;;4153268;28;20136;-66
2022/11/23 07:45:22;;;;;;;9.43;2.38;;;9.70;99.90;;;;;;4154303;28;20041;-66
2022/11/23 07:47:23;;;;;;;7.43;2.22;;;9.70;99.90;;;;;;4147231;28;20099;-65
2022/11/23 07:49:23;;;;;;;12.23;2.55;;;9.70;99.90;;;;;;4156270;28;20052;-67
2022/11/23 07:51:24;;;;;;;9.73;2.67;;;9.70;99.90;;;;;;4149256;28;20092;-66
2022/11/23 07:53:25;;;;;;;8.68;2.45;;;9.70;99.90;;;;;;4130422;28;20041;-66
2022/11/23 07:55:25;;;;;;;13.07;2.72;;;9.70;99.90;;;;;;4138976;28;20081;-66
2022/11/23 07:57:26;;;;;;;6.90;2.50;;;9.70;99.90;;;;;;4138076;28;20117;-67
2022/11/23 07:59:27;;;;;;;6.88;1.92;;;9.70;99.90;;;;;;4153778;28;20042;-66
2022/11/23 08:01:27;;;;;;;5.90;1.77;;;9.70;99.90;;;;;;4151854;28;20034;-66
2022/11/23 08:03:28;;;;;;;6.60;2.10;;;9.70;99.90;;;;;;4138041;28;20085;-66
2022/11/23 08:05:31;;;;;;;10.88;2.35;;;9.70;99.90;;;;;;4155692;28;20092;-66
2022/11/23 08:07:32;;;;;;;6.00;2.13;;;9.70;99.90;;;;;;4152261;28;20486;-66
2022/11/23 08:09:32;;;;;;;11.80;1.77;;;9.70;99.90;;;;;;4147109;28;20041;-66
2022/11/23 08:11:33;;;;;;;9.68;1.98;;;9.70;99.90;;;;;;4140149;28;20579;-66
2022/11/23 08:13:34;;;;;;;8.57;2.20;;;9.70;99.90;;;;;;4142001;28;20092;-66
2022/11/23 08:15:35;;;;;;;8.50;2.63;;;9.70;99.90;;;;;;4148153;28;20097;-66
2022/11/23 08:17:35;;;;;;;7.75;2.00;;;9.70;99.90;;;;;;4150074;28;20121;-66
2022/11/23 08:19:36;;;;;;;8.02;2.50;;;9.70;99.90;;;;;;4154224;28;20037;-66
2022/11/23 08:21:36;;;;;;;9.20;2.05;;;9.70;99.90;;;;;;4147148;28;20033;-67
2022/11/23 08:23:37;;;;;;;8.57;2.20;;;9.70;99.90;;;;;;4151883;28;20121;-66
2022/11/23 08:25:37;;;;;;;7.07;2.08;;;9.70;99.90;;;;;;4139735;28;20038;-67
2022/11/23 08:27:38;;;;;;;11.18;2.58;;;9.70;99.90;;;;;;4155668;28;20034;-66
2022/11/23 08:29:38;;;;;;;6.90;2.13;;;9.70;99.90;;;;;;4156354;28;20109;-70
2022/11/23 08:31:39;;;;;;;11.68;2.55;;;9.80;99.90;;;;;;4157368;28;20034;-67
2022/11/23 08:33:40;;;;;;;6.03;1.88;;;9.70;99.90;;;;;;4156783;28;20026;-66
2022/11/23 08:35:41;;;;;;;11.65;2.67;;;9.80;99.90;;;;;;4141822;28;20061;-66
2022/11/23 08:37:42;;;;;;;7.88;1.80;;;9.80;99.90;;;;;;4158851;28;20042;-66
2022/11/23 08:39:43;;;;;;;12.02;2.38;;;9.80;99.90;;;;;;4156621;28;20037;-66
2022/11/23 08:41:43;;;;;;;9.07;1.98;;;9.90;99.90;;;;;;4140621;28;20488;-67
2022/11/23 08:43:44;;;;;;;5.60;1.98;;;9.90;99.90;;;;;;4144211;28;20387;-67
2022/11/23 08:45:45;;;;;;;10.95;2.75;;;10.00;99.90;;;;;;4157422;28;20026;-66
2022/11/23 08:47:45;;;;;;;12.75;2.92;;;10.20;99.90;;;;;;4151493;28;20033;-66
2022/11/23 08:49:46;;;;;;;10.45;2.72;;;10.40;99.90;;;;;;4151971;28;20029;-67
2022/11/23 08:51:46;;;;;;;10.15;2.40;;;10.60;99.90;;;;;;4153200;28;20030;-66
2022/11/23 08:53:50;;;;;;;7.25;1.92;;;10.80;99.90;;;;;;4154657;28;20026;-67
2022/11/23 08:55:51;;;;;;;7.38;2.58;;;11.10;99.90;;;;;;4157243;28;20026;-67
2022/11/23 08:57:56;;;;;;;7.25;2.58;;;11.30;99.90;;;;;;4155881;28;20474;-67
2022/11/23 08:59:57;;;;;;;9.68;2.42;;;11.50;99.90;;;;;;4156936;28;20080;-70
2022/11/23 09:01:57;;;;;;;10.57;2.30;;;11.70;99.90;;;;;;4136089;28;20047;-66
2022/11/23 09:03:58;;;;;;;10.55;2.70;;;11.80;99.90;;;;;;4148720;28;20149;-66
2022/11/23 09:06:00;;;;;;;9.35;2.55;;;12.00;99.90;;;;;;4147846;28;20405;-67
2022/11/23 09:08:00;;;;;;;7.25;2.28;;;12.00;99.90;;;;;;4148857;28;20054;-68
2022/11/23 09:10:01;;;;;;;8.98;2.20;;;12.20;99.90;;;;;;4149569;28;20060;-68
2022/11/23 09:12:02;;;;;;;5.28;2.03;;;12.30;99.90;;;;;;4158238;28;20037;-68
2022/11/23 09:14:02;;;;;;;8.93;2.33;;;12.30;99.90;;;;;;4156889;28;20516;-67
2022/11/23 09:16:04;;;;;;;7.45;2.22;;;12.50;99.90;;;;;;4151627;28;20427;-67
2022/11/23 09:18:05;;;;;;;8.75;2.70;;;12.60;99.90;;;;;;4155144;28;20511;-67
2022/11/23 09:20:06;;;;;;;5.90;2.20;;;12.50;99.90;;;;;;4150949;28;20041;-68
2022/11/23 09:22:07;;;;;;;6.22;2.10;;;12.60;99.90;;;;;;4142068;28;20446;-68
2022/11/23 09:24:11;;;;;;;6.82;2.47;;;12.60;99.90;;;;;;4158108;28;20037;-67
2022/11/23 09:26:11;;;;;;;7.13;1.90;;;12.50;99.90;;;;;;4154314;28;20030;-67
2022/11/23 09:28:13;;;;;;;12.27;2.53;;;12.50;99.90;;;;;;4157896;28;20036;-67
2022/11/23 09:30:15;;;;;;;6.35;2.13;;;12.50;99.90;;;;;;4151964;28;20044;-71
2022/11/23 09:32:15;;;;;;;9.77;2.90;;;12.40;99.90;;;;;;4152996;28;20029;-68
2022/11/23 09:34:16;;;;;;;6.15;2.38;;;12.40;99.90;;;;;;4151216;28;20468;-67
2022/11/23 09:36:16;;;;;;;9.45;2.45;;;12.40;99.90;;;;;;4150274;28;20038;-68
2022/11/23 09:38:17;;;;;;;9.90;2.95;;;12.20;99.90;;;;;;4158657;28;20030;-67
2022/11/23 09:40:18;;;;;;;9.48;2.80;;;12.20;99.90;;;;;;4154707;28;20049;-67
2022/11/23 09:42:39;;;;;;;12.43;2.75;;;12.10;99.90;;;;;;4152451;28;20048;-66
2022/11/23 09:44:48;;;;;;;9.05;2.67;;;12.20;99.90;;;;;;4156814;28;20038;-66
2022/11/23 09:47:00;;;;;;;8.35;3.20;;;12.10;99.90;;;;;;4146638;28;20029;-68
2022/11/23 09:49:14;;;;;;;8.77;2.20;;;12.10;99.90;;;;;;4155939;28;20036;-66
2022/11/23 09:51:17;;;;;;;8.25;2.40;;;12.10;99.90;;;;;;4144004;28;20104;-67
2022/11/23 09:53:24;;;;;;;10.65;3.05;;;12.10;99.90;;;;;;4146366;28;20048;-67
2022/11/23 09:55:39;;;;;;;8.82;2.60;;;12.10;99.90;;;;;;4157943;28;21074;-70
2022/11/23 09:57:42;;;;;;;6.95;2.08;;;12.10;99.90;;;;;;4165963;28;20029;-68
2022/11/23 09:59:49;;;;;;;9.00;2.67;;;12.00;99.90;;;;;;4164417;28;20035;-66
2022/11/23 10:01:50;;;;;;;8.02;2.55;;;12.10;99.90;;;;;;4164399;28;20553;-66
2022/11/23 10:03:50;;;;;;;7.88;1.95;;;12.10;99.90;;;;;;4152109;28;20029;-66
2022/11/23 10:06:28;;;;;;;8.90;2.47;;;12.10;99.90;;;;;;4164448;28;20022;-67
2022/11/23 10:08:38;;;;;;;8.13;2.70;;;12.10;99.90;;;;;;4101104;28;20040;-66
2022/11/23 10:10:48;;;;;;;11.23;2.50;;;12.10;99.90;;;;;;4126506;28;20064;-66
2022/11/23 10:13:11;;;;;;;10.70;2.72;;;12.10;99.90;;;;;;4158566;28;21137;-67
2022/11/23 10:15:31;;;;;;;;;;;12.10;99.90;;;;;;4157020;28;20022;-67
2022/11/23 10:17:44;;;;;;;7.68;2.55;;;12.10;99.90;;;;;;4160249;28;19921;-66
2022/11/23 10:19:54;;;;;;;;;;;12.00;99.90;;;;;;4148196;28;20026;-66
2022/11/23 10:22:14;;;;;;;8.30;2.40;;;12.00;99.90;;;;;;4153905;28;19909;-66
2022/11/23 10:24:19;;;;;;;8.98;2.55;;;11.90;99.90;;;;;;4165567;28;20044;-66
2022/11/23 10:26:36;;;;;;;11.55;2.45;;;11.90;99.90;;;;;;4164817;28;20036;-67
2022/11/23 10:28:37;;;;;;;10.18;2.50;;;11.90;99.90;;;;;;4153484;28;20037;-66
2022/11/23 10:30:37;;;;;;;9.77;2.38;;;11.80;99.90;;;;;;4138540;28;20491;-66
2022/11/23 10:32:47;;;;;;;8.52;2.22;;;11.80;99.90;;;;;;4151798;28;20117;-67
2022/11/23 10:35:03;;;;;;;6.63;2.17;;;11.80;99.90;;;;;;4156308;28;20025;-67
2022/11/23 10:37:10;;;;;;;11.52;2.78;;;11.80;99.90;;;;;;4157907;28;20033;-67
2022/11/23 10:39:23;;;;;;;9.75;2.40;;;11.80;99.90;;;;;;4160788;28;20030;-67